Rechercher aéroport 
image banner adimage banner ad
image banner ad

DAUK - Touggourt / Sidi Mahdi

Situé à , Algeria

ICAO - DAUK, IATA - TGR

Données fournies par Airmate  

Information générale

Coordonnées: N33°3'36" E6°5'14"
Élévation : 278 feet MSL.
 
Voir autres Aéroports à Ouargla Province

Données opérationnelles

Accessible au public
Heure actuelle UTC:
Heure actuelle locale:
Météo
METAR: DAUK 291000Z 09002KT CAVOK 21/02 Q1026
TAF: TAF DAUK 290800Z 2909/2918 08006KT CAVOK
Voir NOTAMs / SUP AIP / TFR affectant cet aéroport [VIEW]
Fréquences de communication: [VIEW]

Pistes:

Identifiant RWYQFULongueur (ft)Largeur (ft)SurfaceLDA (ft)
019843148ASP
19189°9843148

Coordonnées de l'aéroport

Adresse: Algeria

Vue satellite de DAUK